シドニー の空港の天気 - METARとTAF

シドニー国際空港 ( YSSY / SYD ) - オーストラリア ニューサウスウェールズ州、Mascot
飛行場実況気象(Metar)
観測時間08/22 05:30 AEST (08/21 19:30 UTC)
風向・風速西南西 5m/s
視程10km以上
天気現象
なし
気温14℃
湿度51%
気圧1010hPa
METARYSSY 211930Z 25010KT CAVOK 14/04 Q1010 FM2000 27015G25KT CAVOK FM1930 MOD/SEV TURB BLW 5000FT
過去の天気等 Google飛行場航空写真 Wunderground天気予報

過去48時間のMETAR

飛行場予報(TAF)
発表時間: 8/22 02:20 AEST (8/21 16:20 UTC)
予報対象時間: 22日4時 AEST ~ 23日10時 AEST
風向・風速西 8m/s 瞬間風速 13m/s
視程10km以上
なし
22日8時 AEST から
風向・風速西南西 13m/s 瞬間風速 18m/s
視程10km以上
なし
22日11時 AEST から
風向・風速南南西 13m/s 瞬間風速 18m/s
視程10km以上
天気現象弱いしゅう雨
全天の4割程度の雲 雲底高度 1370m
22日13時 AEST から
風向・風速南 15m/s 瞬間風速 21m/s
視程10km以上
なし
22日20時 AEST から
風向・風速南南西 9m/s 瞬間風速 14m/s
視程10km以上
なし
23日0時 AEST から
風向・風速西南西 6m/s
視程10km以上
なし
TAF AMD YSSY 211620Z 2118/2224 28015G25KT CAVOK
FM212200 25025G35KT CAVOK
FM220100 21025G35KT 9999 -SHRA SCT045
FM220300 18030G40KT CAVOK
FM221000 21018G28KT CAVOK
FM221400 25012KT CAVOK